Archival Weather

Half Moon Bay

Half Moon Bay, California (KHAF)

Report from: Wednesday, December 6, 2023 6:55 AM PST
Current time: Saturday, February 24, 2024 8:18 AM PST

Current weather – Weather history – Daily summaries
Weather forecast

Present weatherMist
Temperature12.0°C (53.6°F)
Dew point12.0°C (53.6°F)
Winds 5 kts (2.6 m/s, 5.8 mph) South-Southwest (210°)
Visibility1.8 mi. (2.8 km)
Clouds Ceiling: Overcast 300 ft. (91 m)
Altimeter30.07 in.Hg (1018 mB)
Relative humidity100 %
Density altitude-332 ft. (-101 m)
Remarks Fully automated report
Automated weather observing station with precipitation discriminator
Flight conditions Low Instrument Meteorological Conditions
Raw dataKHAF 061455Z AUTO 21005KT 1 3/4SM BR OVC003 12/12 A3007 RMK AO2
An error has occurred. This application may no longer respond until reloaded. Reload 🗙